• Join FlightAware (Why Join?)
  • Login
  • US Flag 
10:30PM EDT


 

Airport Tracker/Info


-or-


 

Live Flight TrackerFlight Track Log ✈ SWA3924 ✈ 06-May-2013 ✈ KMCO - KBNA

Flight Track Log - Related Links

Times and Time Zones

All times are in EDT time to prevent confusion due to time zone crossing. See the SWA3924 flight status page for this flight to view local times or setup timezone preferences in your user account.

Time Position Orientation Groundspeed Altitude Reporting Facility
EDT Latitude Longitude Course Direction KTS MPH feet Rate Location/Type
01:16PM 28.4500 -81.3000 339° North 177 204 1,100  Level Orlando TRACON
01:18PM 28.4167 -81.4317 270° West  Level FlightAware Approximate
01:19PM 28.5667 -81.3500 270° West 227 261 7,500  Level Orlando TRACON
01:20PM 28.5667 -81.4167 270° West 257 296 8,000 1,080 Climbing Orlando TRACON
01:22PM 28.5544 -81.5903 265° West 260 299 11,000 2,580 Climbing Jacksonville Center
01:24PM 28.6997 -81.6793 332° Northwest  Level Estimated
01:24PM 28.5039 -81.7753 332° Northwest 301 346 18,700  Level Jacksonville Center
01:25PM 28.4167 -82.2697 270° West  Level FlightAware Approximate
01:26PM 28.6505 -81.8614 270° West  Level Estimated
01:26PM 28.4347 -81.9789 270° West 342 394 22,700  Level Jacksonville Center
01:28PM 28.4167 -82.1665 270° West  Level FlightAware Approximate
01:30PM 28.5956 -82.3678 335° Northwest 371 427 31,900  Level Jacksonville Center
01:31PM 28.7019 -82.4097 341° North 388 447 33,500 1,320 Climbing Jacksonville Center
01:32PM 28.8150 -82.4519 342° North 394 453 34,600 1,080 Climbing Jacksonville Center
01:34PM 28.9646 -82.5313 335° Northwest  Level Estimated
01:35PM 28.9165 -82.6524 335° Northwest  Level FlightAware Approximate
01:35PM 29.1514 -82.5858 332° Northwest 429 494 38,000  Level Jacksonville Center
01:36PM 29.2683 -82.6308 341° North 429 494 38,000  Level Jacksonville Center
01:37PM 29.3792 -82.6733 342° North 429 494 38,000  Level Jacksonville Center
01:38PM 29.4939 -82.7183 341° North 429 494 38,000  Level Jacksonville Center
01:39PM 29.5964 -82.7636 339° North 429 494 38,000  Level Jacksonville Center
01:40PM 29.7111 -82.8089 341° North 429 494 38,000  Level Jacksonville Center
01:41PM 29.5652 -83.0224 332° Northwest  Level FlightAware Approximate
01:41PM 29.8281 -82.8542 341° North 429 494 38,000  Level Jacksonville Center
01:42PM 29.9450 -82.9022 340° North 429 494 38,000  Level Jacksonville Center
01:44PM 30.0931 -82.9861 334° Northwest  Level Estimated
01:47PM 30.5272 -83.1314 334° Northwest 429 494 38,000  Level Jacksonville Center
01:48PM 30.6419 -83.1800 340° North 429 494 38,000  Level Jacksonville Center
01:49PM 30.7547 -83.2239 342° North 429 494 38,000  Level Jacksonville Center
01:51PM 30.9098 -83.2834 342° North  Level FlightAware Approximate
01:51PM 30.7541 -83.3642 334° Northwest  Level Estimated
01:52PM 30.8484 -83.4186 334° Northwest  Level Estimated
01:52PM 31.0819 -83.3608 342° North 428 493 38,000  Level Jacksonville Center
01:53PM 30.9428 -83.4732 334° Northwest  Level Estimated
01:53PM 31.2692 -83.4389 340° North 446 513 38,000  Level Atlanta Center
01:55PM 31.4992 -83.5347 340° North 441 507 38,000  Level Atlanta Center
01:58PM 31.7091 -83.5944 340° North  Level FlightAware Approximate
01:58PM 31.8378 -83.6697 340° North 441 507 38,000  Level Atlanta Center
01:59PM 31.9528 -83.7206 339° North 447 514 38,000  Level Atlanta Center
02:01PM 32.1847 -83.8181 340° North 447 514 38,000  Level Atlanta Center
02:02PM 32.3017 -83.8694 340° North 447 514 38,000  Level Atlanta Center
02:03PM 32.4186 -83.9183 341° North 447 514 38,000  Level Atlanta Center
02:04PM 32.5336 -83.9650 341° North 447 514 38,000  Level Atlanta Center
02:05PM 32.6503 -84.0167 340° North 447 514 38,000  Level Atlanta Center
02:06PM 32.7672 -84.0661 340° North 447 514 38,000  Level Atlanta Center
02:07PM 32.8819 -84.1131 341° North 447 514 38,000  Level Atlanta Center
02:08PM 32.9947 -84.1653 339° North 447 514 38,000  Level Atlanta Center
02:10PM 33.0981 -84.2096 340° North  Level FlightAware Approximate
02:10PM 33.2408 -84.2697 340° North 447 514 38,000  Level Atlanta Center
02:11PM 33.3597 -84.3197 341° North 447 514 38,000  Level Atlanta Center
02:12PM 33.4725 -84.3700 340° North 441 507 38,000  Level Atlanta Center
02:15PM 33.6759 -84.4579 341° North  Level FlightAware Approximate
02:15PM 33.8017 -84.5189 341° North 430 495 38,000  Level Atlanta Center
02:16PM 33.9267 -84.5694 341° North 446 513 38,000 -600 Level Atlanta Center
02:18PM 34.0323 -84.6067 340° North  Level FlightAware Approximate
02:21PM 34.4967 -84.8958 328° Northwest 447 514 34,700  Level Atlanta Center
02:22PM 34.5983 -84.9750 327° Northwest 447 514 33,700 -1,020 Descending Atlanta Center
02:23PM 34.7022 -85.0544 328° Northwest 447 514 32,700 -1,020 Descending Atlanta Center
02:24PM 34.8078 -85.1342 328° Northwest 447 514 31,700 -1,020 Descending Atlanta Center
02:25PM 34.6796 -85.0227 328° Northwest  Level FlightAware Approximate
02:25PM 34.9114 -85.2167 327° Northwest 447 514 30,700  Level Atlanta Center
02:26PM 34.7685 -85.0910 328° Northwest  Level FlightAware Approximate
02:26PM 35.0131 -85.2942 328° Northwest 442 509 29,600  Level Atlanta Center
02:27PM 34.8574 -85.1595 328° Northwest  Level FlightAware Approximate
02:27PM 35.1122 -85.3717 327° Northwest 432 497 28,600  Level Atlanta Center
02:28PM 35.1811 -85.4389 321° Northwest 430 495 27,800 -1,680 Descending Memphis Center
02:30PM 35.2767 -85.5525 316° Northwest  Level FlightAware Approximate
02:32PM 35.4769 -85.8139 289° West 361 415 20,600  Level Memphis Center
02:33PM 35.5381 -85.8947 313° West 341 392 18,700 -1,920 Descending Memphis Center
02:34PM 35.5994 -85.9756 313° West 334 384 16,800 -1,860 Descending Memphis Center
02:35PM 35.6586 -86.0544 313° West 334 384 15,000 -1,860 Descending Memphis Center
02:36PM 35.7219 -86.1381 313° West 334 384 13,100 -1,920 Descending Memphis Center
02:37PM 35.7739 -86.2144 302° West  Level FlightAware Approximate
02:37PM 35.7786 -86.2144 312° West 324 373 11,200  Level Memphis Center
02:38PM 35.8112 -86.3352 289° West  Level FlightAware Approximate
02:38PM 35.8378 -86.2958 312° West 324 373 10,200  Level Memphis Center
02:39PM 35.8942 -86.3647 315° West 300 345 9,100 -1,260 Descending Memphis Center
02:40PM 35.9508 -86.4417 312° West 288 331 7,700 -1,380 Descending Memphis Center
02:41PM 36.0050 -86.5108 314° West 282 325 6,400 -1,140 Descending Memphis Center
02:42PM 36.0550 -86.5753 314° West 277 319 5,500 -900 Descending Memphis Center
02:44PM 36.1667 -86.5333 17° North 213 245 4,000 -960 Descending Nashville TRACON
02:45PM 36.2167 -86.5500 345° North 193 222 3,000 -960 Descending Nashville TRACON
02:45PM 36.2175 -86.5753 272° West 174 200 2,800 -900 Descending Memphis Center
02:46PM 36.1983 -86.6303 247° West 135 155 1,900 -900 Descending Memphis Center
02:49PM 36.1167 -86.6667 219° Southwest  Level FlightAware Approximate
02:56PM 36.1245 -86.6782 219° Southwest  Level Estimated
02:57PM 36.1245 -86.6782 219° Southwest  Level Estimated
02:58PM 36.1245 -86.6782 219° Southwest  Level Estimated
02:59PM 36.1245 -86.6782 219° Southwest  Level Estimated
03:00PM 36.1245 -86.6782 219° Southwest  Level Estimated
03:01PM 36.1245 -86.6782 219° Southwest  Level Estimated
03:02PM 36.1245 -86.6782 219° Southwest  Level Estimated
03:03PM 36.1245 -86.6782 219° Southwest  Level Estimated
03:04PM 36.1245 -86.6782 219° Southwest  Level Estimated